ANA1095 RJTT-ROAH
Flight info
| Callsign | ANA1095 |
|---|---|
| Flight time | 2h 17m |
| Altitude | 40000 |
| Route | LAXAS Y56 TOHME Y54 KOHWA Y12 AYANO Y128 LAXEL Y52 TONAR Y525 IHEYA |
| Aircraft | B789/H-SDE1E2E3FGHIJ2J3J4J5M1RWXY/LB1D1 |
Departure
| Time | 2026-04-23 07:41 |
|---|---|
| Airport | Tokyo Haneda International Airport (RJTT) |
Arrival
| Time | 2026-04-23 09:58 |
|---|---|
| Airport | Naha International Airport (ROAH) |
| Time | Latitude | Longitude | Altitude | Speed | Heading |
|---|---|---|---|---|---|
| 2026-04-23 06:56 | 35.55109 | 139.78999 | 29 ft | 0 kts | 238° |
| 2026-04-23 07:19 | 35.55114 | 139.79008 | 29 ft | 4 kts | 236° |
| 2026-04-23 07:19 | 35.55131 | 139.79034 | 28 ft | 4 kts | 221° |
| 2026-04-23 07:19 | 35.55152 | 139.79052 | 29 ft | 4 kts | 197° |
| 2026-04-23 07:20 | 35.55176 | 139.79053 | 29 ft | 2 kts | 152° |
| 2026-04-23 07:20 | 35.55177 | 139.79052 | 28 ft | 0 kts | 151° |
| 2026-04-23 07:27 | 35.55145 | 139.79074 | 29 ft | 10 kts | 151° |
| 2026-04-23 07:27 | 35.55081 | 139.79119 | 29 ft | 11 kts | 146° |
| 2026-04-23 07:27 | 35.55045 | 139.79189 | 29 ft | 9 kts | 95° |
| 2026-04-23 07:28 | 35.55060 | 139.79259 | 29 ft | 7 kts | 73° |
| 2026-04-23 07:28 | 35.55068 | 139.79298 | 29 ft | 1 kts | 89° |
| 2026-04-23 07:28 | 35.55058 | 139.79339 | 29 ft | 11 kts | 115° |
| 2026-04-23 07:28 | 35.55010 | 139.79391 | 28 ft | 8 kts | 149° |
| 2026-04-23 07:29 | 35.54967 | 139.79422 | 28 ft | 6 kts | 149° |
| 2026-04-23 07:29 | 35.54920 | 139.79457 | 29 ft | 12 kts | 149° |
| 2026-04-23 07:29 | 35.54818 | 139.79532 | 29 ft | 22 kts | 149° |
| 2026-04-23 07:29 | 35.54676 | 139.79631 | 29 ft | 23 kts | 152° |
| 2026-04-23 07:30 | 35.54547 | 139.79720 | 29 ft | 20 kts | 150° |
| 2026-04-23 07:30 | 35.54437 | 139.79797 | 29 ft | 17 kts | 150° |
| 2026-04-23 07:30 | 35.54347 | 139.79861 | 29 ft | 14 kts | 150° |
| 2026-04-23 07:30 | 35.54275 | 139.79913 | 29 ft | 11 kts | 149° |
| 2026-04-23 07:31 | 35.54217 | 139.79954 | 29 ft | 8 kts | 150° |
| 2026-04-23 07:31 | 35.54173 | 139.79984 | 29 ft | 6 kts | 151° |
| 2026-04-23 07:31 | 35.54143 | 139.80004 | 29 ft | 4 kts | 152° |
| 2026-04-23 07:31 | 35.54128 | 139.80014 | 29 ft | 1 kts | 156° |
| 2026-04-23 07:32 | 35.54114 | 139.80023 | 29 ft | 5 kts | 150° |
| 2026-04-23 07:32 | 35.54064 | 139.80059 | 29 ft | 11 kts | 149° |
| 2026-04-23 07:32 | 35.53977 | 139.80122 | 29 ft | 18 kts | 149° |
| 2026-04-23 07:32 | 35.53865 | 139.80191 | 29 ft | 17 kts | 173° |
| 2026-04-23 07:33 | 35.53782 | 139.80135 | 30 ft | 13 kts | 245° |
| 2026-04-23 07:33 | 35.53737 | 139.80032 | 30 ft | 6 kts | 216° |
| 2026-04-23 07:33 | 35.53706 | 139.80034 | 29 ft | 11 kts | 163° |
| 2026-04-23 07:33 | 35.53622 | 139.80089 | 29 ft | 13 kts | 153° |
| 2026-04-23 07:34 | 35.53554 | 139.80134 | 29 ft | 10 kts | 151° |
| 2026-04-23 07:34 | 35.53503 | 139.80169 | 29 ft | 7 kts | 150° |
| 2026-04-23 07:34 | 35.53466 | 139.80196 | 29 ft | 5 kts | 150° |
| 2026-04-23 07:34 | 35.53434 | 139.80219 | 29 ft | 6 kts | 149° |
| 2026-04-23 07:35 | 35.53395 | 139.80246 | 29 ft | 7 kts | 149° |
| 2026-04-23 07:35 | 35.53318 | 139.80302 | 29 ft | 18 kts | 149° |
| 2026-04-23 07:35 | 35.53199 | 139.80385 | 29 ft | 21 kts | 152° |
| 2026-04-23 07:35 | 35.53069 | 139.80484 | 29 ft | 22 kts | 146° |
| 2026-04-23 07:36 | 35.52937 | 139.80522 | 29 ft | 14 kts | 208° |
| 2026-04-23 07:36 | 35.52868 | 139.80446 | 29 ft | 13 kts | 242° |
| 2026-04-23 07:36 | 35.52807 | 139.80352 | 29 ft | 15 kts | 231° |
| 2026-04-23 07:36 | 35.52731 | 139.80260 | 29 ft | 16 kts | 222° |
| 2026-04-23 07:37 | 35.52638 | 139.80158 | 29 ft | 19 kts | 221° |
| 2026-04-23 07:37 | 35.52573 | 139.80099 | 28 ft | 1 kts | 179° |
| 2026-04-23 07:37 | 35.52559 | 139.80108 | 28 ft | 6 kts | 144° |
| 2026-04-23 07:37 | 35.52522 | 139.80154 | 29 ft | 7 kts | 133° |
| 2026-04-23 07:38 | 35.52494 | 139.80190 | 29 ft | 5 kts | 133° |
| 2026-04-23 07:38 | 35.52477 | 139.80214 | 28 ft | 3 kts | 116° |
| 2026-04-23 07:38 | 35.52476 | 139.80239 | 29 ft | 4 kts | 94° |
| 2026-04-23 07:38 | 35.52473 | 139.80255 | 29 ft | 0 kts | 109° |
| 2026-04-23 07:39 | 35.52450 | 139.80304 | 29 ft | 14 kts | 110° |
| 2026-04-23 07:39 | 35.52469 | 139.80419 | 28 ft | 13 kts | 42° |
| 2026-04-23 07:40 | 35.52477 | 139.80428 | 28 ft | 0 kts | 42° |
| 2026-04-23 07:40 | 35.52511 | 139.80465 | 28 ft | 23 kts | 42° |
| 2026-04-23 07:40 | 35.52845 | 139.80857 | 29 ft | 111 kts | 42° |
| 2026-04-23 07:40 | 35.53603 | 139.81693 | 237 ft | 167 kts | 46° |
| 2026-04-23 07:41 | 35.54462 | 139.82603 | 1347 ft | 160 kts | 38° |
| 2026-04-23 07:41 | 35.55340 | 139.83478 | 2193 ft | 173 kts | 42° |
| 2026-04-23 07:41 | 35.56198 | 139.84678 | 2790 ft | 201 kts | 53° |
| 2026-04-23 07:41 | 35.56516 | 139.86451 | 3310 ft | 234 kts | 96° |
| 2026-04-23 07:42 | 35.56032 | 139.88485 | 4050 ft | 258 kts | 110° |
| 2026-04-23 07:42 | 35.55375 | 139.90545 | 5341 ft | 261 kts | 112° |
| 2026-04-23 07:42 | 35.54667 | 139.92609 | 6526 ft | 265 kts | 126° |
| 2026-04-23 07:42 | 35.53346 | 139.94156 | 7640 ft | 265 kts | 152° |
| 2026-04-23 07:43 | 35.51604 | 139.94828 | 8774 ft | 265 kts | 179° |
| 2026-04-23 07:43 | 35.49778 | 139.94589 | 9919 ft | 266 kts | 192° |
| 2026-04-23 07:43 | 35.47910 | 139.94162 | 10676 ft | 285 kts | 194° |
| 2026-04-23 07:43 | 35.45938 | 139.93438 | 11113 ft | 309 kts | 209° |
| 2026-04-23 07:44 | 35.44161 | 139.91801 | 11521 ft | 334 kts | 226° |
| 2026-04-23 07:44 | 35.42565 | 139.89663 | 12388 ft | 341 kts | 227° |
| 2026-04-23 07:44 | 35.40961 | 139.87503 | 13580 ft | 345 kts | 228° |
| 2026-04-23 07:44 | 35.39330 | 139.85325 | 14559 ft | 349 kts | 228° |
| 2026-04-23 07:45 | 35.37674 | 139.83134 | 15574 ft | 352 kts | 228° |
| 2026-04-23 07:45 | 35.36004 | 139.80919 | 16523 ft | 356 kts | 229° |
| 2026-04-23 07:45 | 35.34316 | 139.78679 | 17497 ft | 360 kts | 229° |
| 2026-04-23 07:45 | 35.32611 | 139.76417 | 18401 ft | 363 kts | 229° |
| 2026-04-23 07:46 | 35.30840 | 139.74185 | 19177 ft | 369 kts | 224° |
| 2026-04-23 07:46 | 35.28891 | 139.72179 | 19932 ft | 373 kts | 224° |
| 2026-04-23 07:46 | 35.26920 | 139.70094 | 20705 ft | 377 kts | 224° |
| 2026-04-23 07:46 | 35.24920 | 139.67988 | 21418 ft | 382 kts | 224° |
| 2026-04-23 07:47 | 35.22885 | 139.65871 | 22090 ft | 387 kts | 225° |
| 2026-04-23 07:47 | 35.20819 | 139.63725 | 22733 ft | 392 kts | 225° |
| 2026-04-23 07:47 | 35.18731 | 139.61547 | 23385 ft | 397 kts | 225° |
| 2026-04-23 07:47 | 35.16621 | 139.59345 | 23939 ft | 401 kts | 225° |
| 2026-04-23 07:48 | 35.14491 | 139.57130 | 24528 ft | 403 kts | 225° |
| 2026-04-23 07:48 | 35.12349 | 139.54902 | 25096 ft | 405 kts | 225° |
| 2026-04-23 07:48 | 35.10356 | 139.52485 | 25622 ft | 403 kts | 233° |
| 2026-04-23 07:48 | 35.08686 | 139.49746 | 26208 ft | 402 kts | 240° |
| 2026-04-23 07:49 | 35.07363 | 139.46745 | 26736 ft | 402 kts | 248° |
| 2026-04-23 07:49 | 35.06414 | 139.43526 | 27242 ft | 405 kts | 255° |
| 2026-04-23 07:49 | 35.05807 | 139.40161 | 27686 ft | 408 kts | 258° |
| 2026-04-23 07:49 | 35.05230 | 139.36760 | 28172 ft | 411 kts | 258° |
| 2026-04-23 07:50 | 35.04657 | 139.33335 | 28620 ft | 413 kts | 258° |
| 2026-04-23 07:50 | 35.04085 | 139.29884 | 29087 ft | 416 kts | 258° |
| 2026-04-23 07:50 | 35.03506 | 139.26413 | 29542 ft | 419 kts | 258° |
| 2026-04-23 07:50 | 35.02919 | 139.22921 | 29963 ft | 422 kts | 258° |
| 2026-04-23 07:51 | 35.02327 | 139.19406 | 30327 ft | 424 kts | 258° |
| 2026-04-23 07:51 | 35.01734 | 139.15874 | 30705 ft | 426 kts | 257° |
| 2026-04-23 07:51 | 35.01139 | 139.12331 | 31052 ft | 427 kts | 257° |
| 2026-04-23 07:51 | 35.00537 | 139.08772 | 31421 ft | 429 kts | 257° |
| 2026-04-23 07:52 | 34.99934 | 139.05211 | 31783 ft | 429 kts | 257° |
| 2026-04-23 07:52 | 34.99330 | 139.01646 | 32140 ft | 430 kts | 257° |
| 2026-04-23 07:52 | 34.98802 | 138.98043 | 32388 ft | 433 kts | 262° |
| 2026-04-23 07:52 | 34.98580 | 138.94367 | 32681 ft | 436 kts | 264° |
| 2026-04-23 07:53 | 34.98386 | 138.90683 | 33065 ft | 434 kts | 264° |
| 2026-04-23 07:53 | 34.98194 | 138.87023 | 33574 ft | 431 kts | 264° |
| 2026-04-23 07:53 | 34.98004 | 138.83377 | 33954 ft | 430 kts | 264° |
| 2026-04-23 07:53 | 34.97814 | 138.79746 | 34337 ft | 428 kts | 264° |
| 2026-04-23 07:54 | 34.97625 | 138.76183 | 34781 ft | 425 kts | 264° |
| 2026-04-23 07:54 | 34.97434 | 138.72594 | 35198 ft | 423 kts | 264° |
| 2026-04-23 07:54 | 34.97243 | 138.69031 | 35623 ft | 420 kts | 264° |
| 2026-04-23 07:54 | 34.97053 | 138.65493 | 36037 ft | 417 kts | 264° |
| 2026-04-23 07:55 | 34.96862 | 138.61977 | 36373 ft | 415 kts | 264° |
| 2026-04-23 07:55 | 34.96672 | 138.58474 | 36741 ft | 413 kts | 264° |
| 2026-04-23 07:55 | 34.96481 | 138.54989 | 37124 ft | 410 kts | 264° |
| 2026-04-23 07:55 | 34.96292 | 138.51529 | 37532 ft | 408 kts | 264° |
| 2026-04-23 07:56 | 34.96101 | 138.48093 | 37953 ft | 405 kts | 263° |
| 2026-04-23 07:56 | 34.95911 | 138.44679 | 38351 ft | 402 kts | 263° |
| 2026-04-23 07:56 | 34.95722 | 138.41284 | 38676 ft | 400 kts | 263° |
| 2026-04-23 07:56 | 34.95532 | 138.37903 | 38880 ft | 400 kts | 263° |
| 2026-04-23 07:57 | 34.95341 | 138.34516 | 39088 ft | 400 kts | 263° |
| 2026-04-23 07:57 | 34.95149 | 138.31134 | 39281 ft | 400 kts | 263° |
| 2026-04-23 07:57 | 34.94957 | 138.27756 | 39489 ft | 400 kts | 263° |
| 2026-04-23 07:57 | 34.94763 | 138.24374 | 39691 ft | 400 kts | 264° |
| 2026-04-23 07:58 | 34.94569 | 138.20991 | 39824 ft | 402 kts | 263° |
| 2026-04-23 07:58 | 34.94172 | 138.14149 | 39821 ft | 404 kts | 263° |
| 2026-04-23 07:59 | 34.93775 | 138.07359 | 39823 ft | 401 kts | 263° |
| 2026-04-23 07:59 | 34.93375 | 138.00590 | 39810 ft | 401 kts | 263° |
| 2026-04-23 08:00 | 34.92969 | 137.93785 | 39823 ft | 404 kts | 263° |
| 2026-04-23 08:00 | 34.92558 | 137.86953 | 39815 ft | 404 kts | 263° |
| 2026-04-23 08:01 | 34.92144 | 137.80147 | 39791 ft | 403 kts | 263° |
| 2026-04-23 08:01 | 34.91727 | 137.73355 | 39818 ft | 407 kts | 263° |
| 2026-04-23 08:02 | 34.90928 | 137.66504 | 39826 ft | 405 kts | 254° |
| 2026-04-23 08:02 | 34.89119 | 137.60075 | 39809 ft | 404 kts | 250° |
| 2026-04-23 08:03 | 34.87197 | 137.53630 | 39790 ft | 407 kts | 250° |
| 2026-04-23 08:03 | 34.85246 | 137.47155 | 39790 ft | 407 kts | 250° |
| 2026-04-23 08:04 | 34.83391 | 137.40647 | 39780 ft | 406 kts | 251° |
| 2026-04-23 08:04 | 34.81540 | 137.34169 | 39769 ft | 405 kts | 251° |
| 2026-04-23 08:05 | 34.79672 | 137.27674 | 39766 ft | 408 kts | 251° |
| 2026-04-23 08:05 | 34.77800 | 137.21154 | 39760 ft | 409 kts | 251° |
| 2026-04-23 08:06 | 34.75921 | 137.14644 | 39759 ft | 407 kts | 251° |
| 2026-04-23 08:06 | 34.74042 | 137.08134 | 39758 ft | 409 kts | 251° |
| 2026-04-23 08:07 | 34.72077 | 137.01633 | 39780 ft | 410 kts | 246° |
| 2026-04-23 08:07 | 34.69122 | 136.95700 | 39772 ft | 413 kts | 234° |
| 2026-04-23 08:08 | 34.65013 | 136.90749 | 39751 ft | 421 kts | 223° |
| 2026-04-23 08:08 | 34.60380 | 136.86446 | 39764 ft | 419 kts | 224° |
| 2026-04-23 08:09 | 34.56529 | 136.82886 | 39763 ft | 419 kts | 223° |
| 2026-04-23 08:09 | 34.51894 | 136.78608 | 39754 ft | 418 kts | 223° |
| 2026-04-23 08:10 | 34.47270 | 136.74341 | 39751 ft | 417 kts | 223° |
| 2026-04-23 08:10 | 34.40341 | 136.67962 | 39746 ft | 417 kts | 223° |
| 2026-04-23 08:11 | 34.35708 | 136.63704 | 39747 ft | 419 kts | 223° |
| 2026-04-23 08:11 | 34.31060 | 136.59439 | 39746 ft | 420 kts | 223° |
| 2026-04-23 08:12 | 34.26440 | 136.55127 | 39743 ft | 419 kts | 224° |
| 2026-04-23 08:12 | 34.21844 | 136.50796 | 39742 ft | 419 kts | 224° |
| 2026-04-23 08:13 | 34.17225 | 136.46485 | 39740 ft | 420 kts | 224° |
| 2026-04-23 08:13 | 34.12610 | 136.42161 | 39735 ft | 420 kts | 224° |
| 2026-04-23 08:14 | 34.07790 | 136.38210 | 39750 ft | 427 kts | 214° |
| 2026-04-23 08:14 | 34.02491 | 136.34870 | 39718 ft | 426 kts | 215° |
| 2026-04-23 08:15 | 33.97280 | 136.31572 | 39717 ft | 426 kts | 215° |
| 2026-04-23 08:15 | 33.92021 | 136.28263 | 39706 ft | 427 kts | 215° |
| 2026-04-23 08:16 | 33.86762 | 136.24951 | 39705 ft | 427 kts | 215° |
| 2026-04-23 08:16 | 33.81529 | 136.21670 | 39694 ft | 414 kts | 215° |
| 2026-04-23 08:17 | 33.76497 | 136.18505 | 39669 ft | 410 kts | 216° |
| 2026-04-23 08:17 | 33.71376 | 136.15291 | 39702 ft | 420 kts | 215° |
| 2026-04-23 08:18 | 33.66140 | 136.12021 | 39710 ft | 426 kts | 215° |
| 2026-04-23 08:18 | 33.60881 | 136.08734 | 39701 ft | 425 kts | 215° |
| 2026-04-23 08:19 | 33.55638 | 136.05462 | 39697 ft | 424 kts | 215° |
| 2026-04-23 08:19 | 33.50402 | 136.02199 | 39669 ft | 424 kts | 215° |
| 2026-04-23 08:20 | 33.45185 | 135.98953 | 39674 ft | 422 kts | 216° |
| 2026-04-23 08:20 | 33.39985 | 135.95720 | 39667 ft | 421 kts | 216° |
| 2026-04-23 08:21 | 33.34777 | 135.92487 | 39668 ft | 422 kts | 216° |
| 2026-04-23 08:21 | 33.29554 | 135.89250 | 39675 ft | 423 kts | 216° |
| 2026-04-23 08:22 | 33.24316 | 135.86007 | 39675 ft | 424 kts | 216° |
| 2026-04-23 08:22 | 33.19101 | 135.82787 | 39655 ft | 419 kts | 216° |
| 2026-04-23 08:23 | 33.13928 | 135.79589 | 39644 ft | 419 kts | 216° |
| 2026-04-23 08:23 | 33.08742 | 135.76394 | 39650 ft | 420 kts | 216° |
| 2026-04-23 08:24 | 33.03581 | 135.73216 | 39653 ft | 421 kts | 216° |
| 2026-04-23 08:24 | 32.98375 | 135.70015 | 39660 ft | 422 kts | 216° |
| 2026-04-23 08:25 | 32.93167 | 135.66818 | 39643 ft | 422 kts | 216° |
| 2026-04-23 08:25 | 32.87941 | 135.63612 | 39646 ft | 423 kts | 216° |
| 2026-04-23 08:26 | 32.82717 | 135.60415 | 39645 ft | 422 kts | 216° |
| 2026-04-23 08:26 | 32.77505 | 135.57226 | 39636 ft | 421 kts | 216° |
| 2026-04-23 08:27 | 32.72288 | 135.54038 | 39644 ft | 423 kts | 216° |
| 2026-04-23 08:27 | 32.67052 | 135.50846 | 39652 ft | 424 kts | 216° |
| 2026-04-23 08:28 | 32.61794 | 135.47643 | 39655 ft | 425 kts | 216° |
| 2026-04-23 08:28 | 32.56537 | 135.44445 | 39651 ft | 425 kts | 216° |
| 2026-04-23 08:29 | 32.51278 | 135.41250 | 39656 ft | 425 kts | 216° |
| 2026-04-23 08:29 | 32.46017 | 135.38058 | 39646 ft | 425 kts | 216° |
| 2026-04-23 08:30 | 32.40766 | 135.34877 | 39651 ft | 423 kts | 216° |
| 2026-04-23 08:30 | 32.35529 | 135.31707 | 39650 ft | 422 kts | 216° |
| 2026-04-23 08:31 | 32.30298 | 135.28547 | 39651 ft | 422 kts | 216° |
| 2026-04-23 08:31 | 32.25106 | 135.25413 | 39653 ft | 422 kts | 216° |
| 2026-04-23 08:32 | 32.19883 | 135.22264 | 39660 ft | 422 kts | 216° |
| 2026-04-23 08:32 | 32.14653 | 135.19116 | 39665 ft | 422 kts | 216° |
| 2026-04-23 08:33 | 32.09792 | 135.15431 | 39689 ft | 411 kts | 227° |
| 2026-04-23 08:33 | 32.05870 | 135.10636 | 39679 ft | 404 kts | 237° |
| 2026-04-23 08:34 | 32.02435 | 135.05384 | 39684 ft | 404 kts | 237° |
| 2026-04-23 08:34 | 31.99009 | 135.00135 | 39678 ft | 404 kts | 237° |
| 2026-04-23 08:35 | 31.95582 | 134.94895 | 39679 ft | 403 kts | 237° |
| 2026-04-23 08:35 | 31.92167 | 134.89683 | 39676 ft | 401 kts | 237° |
| 2026-04-23 08:36 | 31.88738 | 134.84451 | 39673 ft | 405 kts | 237° |
| 2026-04-23 08:36 | 31.85285 | 134.79198 | 39676 ft | 406 kts | 237° |
| 2026-04-23 08:37 | 31.81854 | 134.73979 | 39678 ft | 406 kts | 237° |
| 2026-04-23 08:37 | 31.78395 | 134.68728 | 39685 ft | 406 kts | 237° |
| 2026-04-23 08:38 | 31.74934 | 134.63480 | 39687 ft | 406 kts | 236° |
| 2026-04-23 08:38 | 31.71474 | 134.58242 | 39683 ft | 404 kts | 237° |
| 2026-04-23 08:39 | 31.68037 | 134.53042 | 39678 ft | 404 kts | 236° |
| 2026-04-23 08:39 | 31.64583 | 134.47827 | 39680 ft | 405 kts | 236° |
| 2026-04-23 08:40 | 31.61122 | 134.42607 | 39679 ft | 405 kts | 236° |
| 2026-04-23 08:40 | 31.57664 | 134.37400 | 39657 ft | 403 kts | 237° |
| 2026-04-23 08:41 | 31.54206 | 134.32196 | 39686 ft | 408 kts | 236° |
| 2026-04-23 08:41 | 31.50714 | 134.26955 | 39687 ft | 407 kts | 236° |
| 2026-04-23 08:42 | 31.47235 | 134.21736 | 39698 ft | 406 kts | 236° |
| 2026-04-23 08:42 | 31.43774 | 134.16551 | 39681 ft | 405 kts | 236° |
| 2026-04-23 08:43 | 31.40302 | 134.11355 | 39683 ft | 409 kts | 236° |
| 2026-04-23 08:43 | 31.36801 | 134.06128 | 39685 ft | 408 kts | 236° |
| 2026-04-23 08:44 | 31.33309 | 134.00916 | 39666 ft | 406 kts | 236° |
| 2026-04-23 08:44 | 31.29811 | 133.95704 | 39683 ft | 409 kts | 236° |
| 2026-04-23 08:45 | 31.26290 | 133.90467 | 39684 ft | 410 kts | 236° |
| 2026-04-23 08:45 | 31.22768 | 133.85234 | 39682 ft | 410 kts | 236° |
| 2026-04-23 08:46 | 31.19241 | 133.79999 | 39681 ft | 412 kts | 236° |
| 2026-04-23 08:46 | 31.15684 | 133.74728 | 39692 ft | 413 kts | 236° |
| 2026-04-23 08:47 | 31.12134 | 133.69476 | 39685 ft | 411 kts | 236° |
| 2026-04-23 08:47 | 31.08596 | 133.64246 | 39673 ft | 410 kts | 236° |
| 2026-04-23 08:48 | 31.05051 | 133.59013 | 39704 ft | 412 kts | 236° |
| 2026-04-23 08:48 | 31.01495 | 133.53771 | 39705 ft | 412 kts | 236° |
| 2026-04-23 08:49 | 30.97936 | 133.48528 | 39708 ft | 413 kts | 236° |
| 2026-04-23 08:49 | 30.94397 | 133.43322 | 39696 ft | 412 kts | 237° |
| 2026-04-23 08:50 | 30.90838 | 133.38093 | 39709 ft | 411 kts | 237° |
| 2026-04-23 08:50 | 30.87288 | 133.32885 | 39703 ft | 410 kts | 237° |
| 2026-04-23 08:51 | 30.83747 | 133.27696 | 39703 ft | 409 kts | 237° |
| 2026-04-23 08:51 | 30.80191 | 133.22491 | 39717 ft | 413 kts | 237° |
| 2026-04-23 08:52 | 30.76616 | 133.17270 | 39712 ft | 411 kts | 237° |
| 2026-04-23 08:52 | 30.73060 | 133.12077 | 39714 ft | 410 kts | 237° |
| 2026-04-23 08:53 | 30.69503 | 133.06895 | 39713 ft | 410 kts | 237° |
| 2026-04-23 08:53 | 30.65934 | 133.01699 | 39733 ft | 412 kts | 237° |
| 2026-04-23 08:54 | 30.62362 | 132.96508 | 39719 ft | 410 kts | 237° |
| 2026-04-23 08:54 | 30.58835 | 132.91386 | 39719 ft | 408 kts | 237° |
| 2026-04-23 08:55 | 30.55277 | 132.86227 | 39723 ft | 410 kts | 237° |
| 2026-04-23 08:55 | 30.51702 | 132.81051 | 39727 ft | 412 kts | 237° |
| 2026-04-23 08:56 | 30.48119 | 132.75870 | 39727 ft | 412 kts | 237° |
| 2026-04-23 08:56 | 30.44538 | 132.70698 | 39701 ft | 411 kts | 237° |
| 2026-04-23 08:57 | 30.40967 | 132.65548 | 39715 ft | 410 kts | 237° |
| 2026-04-23 08:57 | 30.37400 | 132.60410 | 39728 ft | 409 kts | 237° |
| 2026-04-23 08:58 | 30.33837 | 132.55285 | 39729 ft | 408 kts | 237° |
| 2026-04-23 08:58 | 30.30279 | 132.50171 | 39718 ft | 409 kts | 237° |
| 2026-04-23 08:59 | 30.26697 | 132.45032 | 39725 ft | 411 kts | 237° |
| 2026-04-23 08:59 | 30.23102 | 132.39882 | 39744 ft | 412 kts | 237° |
| 2026-04-23 09:00 | 30.19508 | 132.34739 | 39736 ft | 410 kts | 237° |
| 2026-04-23 09:00 | 30.16533 | 132.30484 | 39725 ft | 410 kts | 237° |
| 2026-04-23 09:01 | 30.12919 | 132.25322 | 39728 ft | 415 kts | 237° |
| 2026-04-23 09:01 | 30.09293 | 132.20152 | 39732 ft | 414 kts | 237° |
| 2026-04-23 09:02 | 30.05670 | 132.14996 | 39736 ft | 412 kts | 237° |
| 2026-04-23 09:02 | 30.02064 | 132.09864 | 39736 ft | 413 kts | 237° |
| 2026-04-23 09:03 | 29.98430 | 132.04702 | 39740 ft | 415 kts | 237° |
| 2026-04-23 09:03 | 29.94791 | 131.99540 | 39739 ft | 415 kts | 237° |
| 2026-04-23 09:04 | 29.91155 | 131.94389 | 39736 ft | 413 kts | 237° |
| 2026-04-23 09:04 | 29.87529 | 131.89257 | 39736 ft | 415 kts | 237° |
| 2026-04-23 09:05 | 29.83878 | 131.84099 | 39744 ft | 415 kts | 237° |
| 2026-04-23 09:05 | 29.80183 | 131.78979 | 39738 ft | 416 kts | 236° |
| 2026-04-23 09:06 | 29.76442 | 131.73901 | 39714 ft | 414 kts | 236° |
| 2026-04-23 09:06 | 29.72699 | 131.68837 | 39746 ft | 417 kts | 236° |
| 2026-04-23 09:07 | 29.68960 | 131.63788 | 39746 ft | 417 kts | 236° |
| 2026-04-23 09:07 | 29.65199 | 131.58712 | 39738 ft | 417 kts | 236° |
| 2026-04-23 09:08 | 29.61437 | 131.53643 | 39742 ft | 417 kts | 236° |
| 2026-04-23 09:08 | 29.57668 | 131.48568 | 39740 ft | 418 kts | 236° |
| 2026-04-23 09:09 | 29.53887 | 131.43486 | 39743 ft | 418 kts | 236° |
| 2026-04-23 09:09 | 29.50111 | 131.38418 | 39740 ft | 417 kts | 236° |
| 2026-04-23 09:10 | 29.44455 | 131.30832 | 39759 ft | 419 kts | 236° |
| 2026-04-23 09:11 | 29.40662 | 131.25760 | 39753 ft | 418 kts | 236° |
| 2026-04-23 09:11 | 29.36883 | 131.20706 | 39753 ft | 417 kts | 236° |
| 2026-04-23 09:12 | 29.33105 | 131.15664 | 39744 ft | 417 kts | 236° |
| 2026-04-23 09:12 | 29.29315 | 131.10607 | 39760 ft | 419 kts | 236° |
| 2026-04-23 09:13 | 29.25524 | 131.05563 | 39766 ft | 417 kts | 236° |
| 2026-04-23 09:13 | 29.21745 | 131.00534 | 39765 ft | 416 kts | 236° |
| 2026-04-23 09:14 | 29.17963 | 130.95511 | 39764 ft | 416 kts | 236° |
| 2026-04-23 09:14 | 29.14181 | 130.90492 | 39781 ft | 417 kts | 236° |
| 2026-04-23 09:15 | 29.10399 | 130.85481 | 39767 ft | 415 kts | 236° |
| 2026-04-23 09:15 | 29.06623 | 130.80481 | 39769 ft | 416 kts | 236° |
| 2026-04-23 09:16 | 29.02835 | 130.75475 | 39762 ft | 417 kts | 236° |
| 2026-04-23 09:16 | 28.99053 | 130.70481 | 39763 ft | 419 kts | 236° |
| 2026-04-23 09:17 | 28.95242 | 130.65456 | 39767 ft | 419 kts | 236° |
| 2026-04-23 09:17 | 28.91430 | 130.60434 | 39770 ft | 419 kts | 236° |
| 2026-04-23 09:18 | 28.87614 | 130.55415 | 39765 ft | 419 kts | 236° |
| 2026-04-23 09:18 | 28.83783 | 130.50381 | 39770 ft | 421 kts | 236° |
| 2026-04-23 09:19 | 28.79948 | 130.45349 | 39782 ft | 420 kts | 236° |
| 2026-04-23 09:19 | 28.76129 | 130.40344 | 39779 ft | 417 kts | 236° |
| 2026-04-23 09:20 | 28.72325 | 130.35362 | 39775 ft | 418 kts | 237° |
| 2026-04-23 09:20 | 28.68484 | 130.30338 | 39779 ft | 421 kts | 236° |
| 2026-04-23 09:21 | 28.64628 | 130.25307 | 39790 ft | 422 kts | 236° |
| 2026-04-23 09:21 | 28.60780 | 130.20287 | 39795 ft | 419 kts | 236° |
| 2026-04-23 09:22 | 28.56952 | 130.15300 | 39777 ft | 418 kts | 237° |
| 2026-04-23 09:22 | 28.53107 | 130.10295 | 39780 ft | 421 kts | 236° |
| 2026-04-23 09:23 | 28.49245 | 130.05279 | 39778 ft | 422 kts | 236° |
| 2026-04-23 09:23 | 28.45383 | 130.00265 | 39785 ft | 421 kts | 237° |
| 2026-04-23 09:24 | 28.41538 | 129.95279 | 39769 ft | 420 kts | 237° |
| 2026-04-23 09:24 | 28.37671 | 129.90271 | 39769 ft | 422 kts | 236° |
| 2026-04-23 09:25 | 28.33819 | 129.85291 | 39770 ft | 422 kts | 236° |
| 2026-04-23 09:25 | 28.29913 | 129.80244 | 39790 ft | 423 kts | 236° |
| 2026-04-23 09:26 | 28.26066 | 129.75283 | 39787 ft | 421 kts | 236° |
| 2026-04-23 09:26 | 28.22193 | 129.70290 | 39788 ft | 422 kts | 236° |
| 2026-04-23 09:27 | 28.18311 | 129.65293 | 39797 ft | 422 kts | 236° |
| 2026-04-23 09:27 | 28.14427 | 129.60298 | 39801 ft | 422 kts | 236° |
| 2026-04-23 09:28 | 28.10537 | 129.55303 | 39804 ft | 422 kts | 236° |
| 2026-04-23 09:28 | 28.06646 | 129.50312 | 39805 ft | 423 kts | 236° |
| 2026-04-23 09:29 | 28.02746 | 129.45316 | 39806 ft | 424 kts | 236° |
| 2026-04-23 09:29 | 27.98835 | 129.40312 | 39807 ft | 425 kts | 236° |
| 2026-04-23 09:30 | 27.94922 | 129.35312 | 39807 ft | 423 kts | 236° |
| 2026-04-23 09:30 | 27.91017 | 129.30327 | 39817 ft | 422 kts | 236° |
| 2026-04-23 09:31 | 27.87129 | 129.25369 | 39812 ft | 421 kts | 236° |
| 2026-04-23 09:31 | 27.83241 | 129.20418 | 39810 ft | 421 kts | 236° |
| 2026-04-23 09:32 | 27.79355 | 129.15475 | 39793 ft | 420 kts | 236° |
| 2026-04-23 09:32 | 27.75447 | 129.10503 | 39831 ft | 425 kts | 236° |
| 2026-04-23 09:33 | 27.71549 | 129.05572 | 39817 ft | 422 kts | 236° |
| 2026-04-23 09:33 | 27.67647 | 129.00621 | 39822 ft | 422 kts | 236° |
| 2026-04-23 09:34 | 27.63735 | 128.95675 | 39824 ft | 422 kts | 236° |
| 2026-04-23 09:34 | 27.59825 | 128.90732 | 39824 ft | 422 kts | 236° |
| 2026-04-23 09:35 | 27.55913 | 128.85795 | 39812 ft | 421 kts | 236° |
| 2026-04-23 09:35 | 27.52015 | 128.80881 | 39808 ft | 421 kts | 236° |
| 2026-04-23 09:36 | 27.48109 | 128.75959 | 39809 ft | 422 kts | 236° |
| 2026-04-23 09:36 | 27.46154 | 128.73503 | 39468 ft | 419 kts | 236° |
| 2026-04-23 09:36 | 27.44228 | 128.71054 | 38815 ft | 415 kts | 239° |
| 2026-04-23 09:36 | 27.42550 | 128.68455 | 38113 ft | 407 kts | 245° |
| 2026-04-23 09:37 | 27.41115 | 128.65743 | 37491 ft | 401 kts | 246° |
| 2026-04-23 09:37 | 27.39694 | 128.63051 | 36815 ft | 399 kts | 245° |
| 2026-04-23 09:37 | 27.38282 | 128.60374 | 36142 ft | 397 kts | 245° |
| 2026-04-23 09:37 | 27.36876 | 128.57698 | 35433 ft | 397 kts | 245° |
| 2026-04-23 09:38 | 27.35465 | 128.55009 | 34710 ft | 402 kts | 244° |
| 2026-04-23 09:38 | 27.34028 | 128.52278 | 33941 ft | 409 kts | 244° |
| 2026-04-23 09:38 | 27.32567 | 128.49511 | 33119 ft | 414 kts | 244° |
| 2026-04-23 09:38 | 27.31090 | 128.46711 | 32289 ft | 420 kts | 243° |
| 2026-04-23 09:39 | 27.29574 | 128.43836 | 31397 ft | 432 kts | 242° |
| 2026-04-23 09:39 | 27.28029 | 128.40916 | 30448 ft | 437 kts | 242° |
| 2026-04-23 09:39 | 27.26469 | 128.37966 | 29410 ft | 441 kts | 242° |
| 2026-04-23 09:39 | 27.24905 | 128.35008 | 28427 ft | 439 kts | 242° |
| 2026-04-23 09:40 | 27.23348 | 128.32068 | 27471 ft | 436 kts | 242° |
| 2026-04-23 09:40 | 27.21803 | 128.29151 | 26525 ft | 433 kts | 242° |
| 2026-04-23 09:40 | 27.20269 | 128.26255 | 25598 ft | 430 kts | 241° |
| 2026-04-23 09:40 | 27.18744 | 128.23380 | 24675 ft | 427 kts | 241° |
| 2026-04-23 09:41 | 27.17228 | 128.20522 | 23762 ft | 425 kts | 241° |
| 2026-04-23 09:41 | 27.15721 | 128.17685 | 22825 ft | 421 kts | 241° |
| 2026-04-23 09:41 | 27.14230 | 128.14880 | 21935 ft | 415 kts | 241° |
| 2026-04-23 09:41 | 27.12761 | 128.12117 | 21056 ft | 409 kts | 241° |
| 2026-04-23 09:42 | 27.11310 | 128.09389 | 20220 ft | 404 kts | 241° |
| 2026-04-23 09:42 | 27.09877 | 128.06696 | 19379 ft | 400 kts | 241° |
| 2026-04-23 09:42 | 27.08458 | 128.04032 | 18554 ft | 396 kts | 241° |
| 2026-04-23 09:42 | 27.07052 | 128.01394 | 17689 ft | 392 kts | 241° |
| 2026-04-23 09:43 | 27.05666 | 127.98796 | 16894 ft | 385 kts | 241° |
| 2026-04-23 09:43 | 27.04321 | 127.96275 | 16148 ft | 378 kts | 241° |
| 2026-04-23 09:43 | 27.02992 | 127.93792 | 15535 ft | 368 kts | 240° |
| 2026-04-23 09:43 | 27.01433 | 127.91519 | 14775 ft | 369 kts | 230° |
| 2026-04-23 09:44 | 26.99514 | 127.89594 | 14026 ft | 372 kts | 220° |
| 2026-04-23 09:44 | 26.97302 | 127.88102 | 13247 ft | 371 kts | 211° |
| 2026-04-23 09:44 | 26.95028 | 127.86807 | 12502 ft | 363 kts | 211° |
| 2026-04-23 09:44 | 26.92786 | 127.85524 | 11778 ft | 359 kts | 211° |
| 2026-04-23 09:45 | 26.90583 | 127.84274 | 11171 ft | 350 kts | 211° |
| 2026-04-23 09:45 | 26.88464 | 127.83076 | 10914 ft | 331 kts | 211° |
| 2026-04-23 09:45 | 26.86479 | 127.81950 | 10783 ft | 309 kts | 211° |
| 2026-04-23 09:45 | 26.84624 | 127.80894 | 10658 ft | 289 kts | 211° |
| 2026-04-23 09:46 | 26.82885 | 127.79907 | 10532 ft | 271 kts | 212° |
| 2026-04-23 09:46 | 26.81258 | 127.78982 | 10404 ft | 255 kts | 211° |
| 2026-04-23 09:46 | 26.79660 | 127.78069 | 10159 ft | 261 kts | 212° |
| 2026-04-23 09:46 | 26.78045 | 127.77149 | 9865 ft | 260 kts | 211° |
| 2026-04-23 09:47 | 26.76434 | 127.76237 | 9549 ft | 256 kts | 211° |
| 2026-04-23 09:47 | 26.74859 | 127.75349 | 9253 ft | 254 kts | 211° |
| 2026-04-23 09:47 | 26.73272 | 127.74448 | 8960 ft | 256 kts | 211° |
| 2026-04-23 09:47 | 26.71688 | 127.73549 | 8663 ft | 255 kts | 211° |
| 2026-04-23 09:48 | 26.70119 | 127.72662 | 8368 ft | 249 kts | 211° |
| 2026-04-23 09:48 | 26.68574 | 127.71787 | 8079 ft | 250 kts | 211° |
| 2026-04-23 09:48 | 26.67021 | 127.70906 | 7818 ft | 249 kts | 211° |
| 2026-04-23 09:48 | 26.65470 | 127.70027 | 7532 ft | 251 kts | 211° |
| 2026-04-23 09:49 | 26.63916 | 127.69148 | 7204 ft | 250 kts | 211° |
| 2026-04-23 09:49 | 26.62891 | 127.68567 | 6990 ft | 249 kts | 211° |
| 2026-04-23 09:49 | 26.61353 | 127.67695 | 6658 ft | 248 kts | 211° |
| 2026-04-23 09:49 | 26.59816 | 127.66826 | 6324 ft | 247 kts | 211° |
| 2026-04-23 09:50 | 26.58285 | 127.65965 | 5995 ft | 245 kts | 211° |
| 2026-04-23 09:50 | 26.56354 | 127.64878 | 5598 ft | 225 kts | 210° |
| 2026-04-23 09:50 | 26.55424 | 127.64361 | 5399 ft | 218 kts | 211° |
| 2026-04-23 09:50 | 26.53686 | 127.63368 | 5022 ft | 207 kts | 211° |
| 2026-04-23 09:51 | 26.52827 | 127.62878 | 4834 ft | 203 kts | 211° |
| 2026-04-23 09:51 | 26.51580 | 127.62174 | 4559 ft | 198 kts | 211° |
| 2026-04-23 09:51 | 26.50371 | 127.61498 | 4303 ft | 192 kts | 209° |
| 2026-04-23 09:51 | 26.49046 | 127.61203 | 4026 ft | 202 kts | 184° |
| 2026-04-23 09:52 | 26.47660 | 127.61307 | 3784 ft | 204 kts | 181° |
| 2026-04-23 09:52 | 26.46234 | 127.61428 | 3507 ft | 206 kts | 181° |
| 2026-04-23 09:52 | 26.44799 | 127.61545 | 3255 ft | 208 kts | 182° |
| 2026-04-23 09:52 | 26.43350 | 127.61654 | 2981 ft | 208 kts | 181° |
| 2026-04-23 09:53 | 26.41923 | 127.61927 | 2688 ft | 210 kts | 168° |
| 2026-04-23 09:53 | 26.40510 | 127.62099 | 2418 ft | 201 kts | 185° |
| 2026-04-23 09:53 | 26.39140 | 127.62167 | 2159 ft | 193 kts | 182° |
| 2026-04-23 09:53 | 26.37842 | 127.62246 | 2032 ft | 178 kts | 182° |
| 2026-04-23 09:54 | 26.36646 | 127.62320 | 2022 ft | 167 kts | 182° |
| 2026-04-23 09:54 | 26.35504 | 127.62388 | 2027 ft | 164 kts | 183° |
| 2026-04-23 09:54 | 26.34361 | 127.62455 | 2023 ft | 164 kts | 183° |
| 2026-04-23 09:54 | 26.33222 | 127.62519 | 2024 ft | 164 kts | 183° |
| 2026-04-23 09:55 | 26.32091 | 127.62577 | 2033 ft | 161 kts | 184° |
| 2026-04-23 09:55 | 26.30978 | 127.62540 | 2014 ft | 160 kts | 188° |
| 2026-04-23 09:55 | 26.29865 | 127.62475 | 1868 ft | 156 kts | 184° |
| 2026-04-23 09:55 | 26.28812 | 127.62559 | 1674 ft | 152 kts | 176° |
| 2026-04-23 09:56 | 26.27779 | 127.62779 | 1474 ft | 149 kts | 175° |
| 2026-04-23 09:56 | 26.26761 | 127.62865 | 1275 ft | 145 kts | 184° |
| 2026-04-23 09:56 | 26.25755 | 127.62812 | 1082 ft | 144 kts | 186° |
| 2026-04-23 09:56 | 26.24759 | 127.62774 | 915 ft | 143 kts | 180° |
| 2026-04-23 09:57 | 26.23770 | 127.62863 | 737 ft | 143 kts | 172° |
| 2026-04-23 09:57 | 26.22788 | 127.63029 | 566 ft | 142 kts | 173° |
| 2026-04-23 09:57 | 26.21822 | 127.63220 | 253 ft | 136 kts | 175° |
| 2026-04-23 09:57 | 26.20886 | 127.63201 | 137 ft | 138 kts | 178° |
| 2026-04-23 09:58 | 26.19913 | 127.63267 | 39 ft | 140 kts | 179° |
| 2026-04-23 09:58 | 26.19023 | 127.63303 | 23 ft | 116 kts | 178° |
| 2026-04-23 09:58 | 26.18387 | 127.63330 | 26 ft | 60 kts | 177° |
| 2026-04-23 09:58 | 26.18010 | 127.63353 | 27 ft | 38 kts | 174° |
| 2026-04-23 09:59 | 26.17886 | 127.63411 | 25 ft | 13 kts | 110° |
| 2026-04-23 09:59 | 26.17900 | 127.63503 | 25 ft | 13 kts | 60° |
| 2026-04-23 09:59 | 26.17972 | 127.63539 | 25 ft | 12 kts | 4° |
| 2026-04-23 09:59 | 26.18064 | 127.63534 | 25 ft | 14 kts | 359° |
| 2026-04-23 10:00 | 26.18167 | 127.63534 | 27 ft | 16 kts | 359° |
| 2026-04-23 10:00 | 26.18282 | 127.63527 | 25 ft | 18 kts | 356° |
| 2026-04-23 10:00 | 26.18411 | 127.63519 | 25 ft | 19 kts | 354° |
| 2026-04-23 10:00 | 26.18551 | 127.63513 | 25 ft | 21 kts | 358° |
| 2026-04-23 10:01 | 26.18702 | 127.63506 | 25 ft | 22 kts | 357° |
| 2026-04-23 10:01 | 26.18860 | 127.63498 | 23 ft | 23 kts | 357° |
| 2026-04-23 10:01 | 26.19015 | 127.63490 | 25 ft | 22 kts | 357° |
| 2026-04-23 10:01 | 26.19161 | 127.63482 | 25 ft | 20 kts | 357° |
| 2026-04-23 10:02 | 26.19291 | 127.63477 | 25 ft | 17 kts | 358° |
| 2026-04-23 10:02 | 26.19403 | 127.63472 | 24 ft | 15 kts | 358° |
| 2026-04-23 10:02 | 26.19498 | 127.63468 | 26 ft | 13 kts | 358° |
| 2026-04-23 10:02 | 26.19579 | 127.63465 | 25 ft | 11 kts | 358° |
| 2026-04-23 10:03 | 26.19649 | 127.63462 | 23 ft | 10 kts | 358° |
| 2026-04-23 10:03 | 26.19742 | 127.63458 | 25 ft | 14 kts | 356° |
| 2026-04-23 10:03 | 26.19833 | 127.63451 | 25 ft | 12 kts | 358° |
| 2026-04-23 10:03 | 26.19911 | 127.63447 | 25 ft | 10 kts | 358° |
| 2026-04-23 10:04 | 26.19977 | 127.63445 | 25 ft | 9 kts | 359° |
| 2026-04-23 10:04 | 26.20067 | 127.63442 | 25 ft | 19 kts | 358° |
| 2026-04-23 10:04 | 26.20197 | 127.63458 | 25 ft | 12 kts | 45° |
| 2026-04-23 10:04 | 26.20215 | 127.63522 | 25 ft | 9 kts | 83° |
| 2026-04-23 10:05 | 26.20218 | 127.63591 | 26 ft | 9 kts | 88° |
| 2026-04-23 10:05 | 26.20222 | 127.63674 | 26 ft | 13 kts | 86° |
| 2026-04-23 10:05 | 26.20226 | 127.63767 | 25 ft | 11 kts | 89° |
| 2026-04-23 10:05 | 26.20228 | 127.63849 | 24 ft | 10 kts | 85° |
| 2026-04-23 10:06 | 26.20232 | 127.63921 | 26 ft | 9 kts | 87° |
| 2026-04-23 10:06 | 26.20234 | 127.63985 | 27 ft | 8 kts | 87° |
| 2026-04-23 10:06 | 26.20237 | 127.64042 | 22 ft | 7 kts | 87° |
| 2026-04-23 10:06 | 26.20239 | 127.64094 | 23 ft | 6 kts | 87° |
| 2026-04-23 10:07 | 26.20241 | 127.64139 | 25 ft | 5 kts | 87° |
| 2026-04-23 10:07 | 26.20244 | 127.64224 | 26 ft | 18 kts | 87° |
| 2026-04-23 10:07 | 26.20258 | 127.64306 | 25 ft | 3 kts | 39° |
| 2026-04-23 10:07 | 26.20326 | 127.64357 | 27 ft | 17 kts | 52° |
| 2026-04-23 10:08 | 26.20345 | 127.64475 | 25 ft | 16 kts | 90° |
| 2026-04-23 10:08 | 26.20346 | 127.64589 | 26 ft | 14 kts | 88° |
| 2026-04-23 10:08 | 26.20384 | 127.64670 | 26 ft | 11 kts | 33° |
| 2026-04-23 10:09 | 26.20506 | 127.64736 | 26 ft | 11 kts | 18° |
| 2026-04-23 10:09 | 26.20571 | 127.64746 | 25 ft | 9 kts | 1° |
| 2026-04-23 10:09 | 26.20626 | 127.64751 | 25 ft | 7 kts | 13° |
| 2026-04-23 10:09 | 26.20654 | 127.64773 | 26 ft | 9 kts | 44° |
| 2026-04-23 10:10 | 26.20698 | 127.64824 | 28 ft | 7 kts | 48° |
| 2026-04-23 10:10 | 26.20716 | 127.64847 | 25 ft | 2 kts | 47° |
| 2026-04-23 10:10 | 26.20719 | 127.64851 | 26 ft | 1 kts | 47° |
| 2026-04-23 10:10 | 26.20720 | 127.64851 | 26 ft | 0 kts | 47° |